Opportunity — WDJ5813 — position and weather

sailwx.info

Track history (hours):
 
Tides and Currents Weather Stations Pressure Air Temp Water Temp Dewpoint Dewpoint Depression Visibility Wind Speed Wind Dir Waves Ship Positions

Opportunity

Owner: HNY Ferry Fleet LLC, New York, NY. More information available from US FCC via Universal Licensing System and Coast Guard Vessel Documentation Center.

Last reported at 2017-Oct-16 16:33 UTC. Time now 2017-Oct-17 13:19 UTC.
Position N 40°42' W 073°58'.

Length 26 m; draft 2 m.

Type: Passenger vessel. MMSI: 367791540.

Date/timePositionNaut miles runAvg speedWind from/ knotsBaromVisibWave heightAir tempDewpointWater temp
2017-Oct-16 16:33N 40°42' W 073°58'0 0.2
2017-Oct-16 16:30N 40°42' W 073°58'4 8.2
2017-Oct-16 16:00N 40°39' W 074°02'713.1
2017-Oct-16 15:30N 40°34' W 073°56'3 5.4
2017-Oct-16 15:00N 40°34' W 073°53'8 8.1
2017-Oct-16 14:00N 40°39' W 074°02'713.4
2017-Oct-16 13:30N 40°34' W 073°55'1 1.5
2017-Oct-16 13:00N 40°34' W 073°54'714.9
2017-Oct-16 12:31N 40°39' W 074°02'0 0.1
2017-Oct-16 12:00N 40°39' W 074°02'714.2
2017-Oct-16 11:30N 40°34' W 073°54'0 0.7
2017-Oct-16 11:00N 40°34' W 073°55'714.4
2017-Oct-16 10:31N 40°39' W 074°02'0 0.1
2017-Oct-16 10:01N 40°39' W 074°02'713.5
2017-Oct-16 09:29N 40°34' W 073°55'1 2.7
2017-Oct-16 09:00N 40°34' W 073°53'816.8
2017-Oct-16 08:31N 40°40' W 074°01'3 6.0
2017-Oct-16 08:00N 40°42' W 073°58'0 0.0
2017-Oct-16 02:49N 40°42' W 073°58'1 4.7
2017-Oct-16 02:31N 40°42' W 074°00'611.7
2017-Oct-16 02:01N 40°37' W 074°02'1017.8
2017-Oct-16 01:28N 40°35' W 073°50'920.1
2017-Oct-16 01:01N 40°36' W 074°02'713.1
2017-Oct-16 00:31N 40°42' W 074°00'815.8
2017-Oct-16 00:00N 40°34' W 074°00'714.3
2017-Oct-15 23:30N 40°35' W 073°51'919.3
2017-Oct-15 23:00N 40°38' W 074°03'4 8.4
2017-Oct-15 22:31N 40°41' W 074°01'815.2
2017-Oct-15 22:00N 40°34' W 073°58'510.2
2017-Oct-15 21:30N 40°35' W 073°51'918.6
2017-Oct-15 21:00N 40°38' W 074°03'4 8.7
2017-Oct-15 20:31N 40°42' W 074°00'815.2
2017-Oct-15 20:00N 40°34' W 073°60'714.1
2017-Oct-15 19:28N 40°35' W 073°50'920.0
2017-Oct-15 19:00N 40°36' W 074°02'612.2
2017-Oct-15 18:31N 40°42' W 074°00'612.7
2017-Oct-15 18:01N 40°36' W 074°02'917.7
2017-Oct-15 17:29N 40°35' W 073°50'918.6
2017-Oct-15 17:00N 40°36' W 074°02'713.5
2017-Oct-15 16:30N 40°42' W 074°00'612.0
2017-Oct-15 16:00N 40°36' W 074°02'1018.8
2017-Oct-15 15:30N 40°35' W 073°50'817.1
2017-Oct-15 15:01N 40°35' W 074°01'2 2.1
2017-Oct-15 14:00N 40°36' W 074°02'1018.1
2017-Oct-15 13:29N 40°35' W 073°50'816.5
2017-Oct-15 13:00N 40°34' W 074°00'816.2
2017-Oct-15 12:30N 40°42' W 074°00'611.3
2017-Oct-15 12:00N 40°37' W 074°03'1018.1
2017-Oct-15 11:28N 40°35' W 073°50'714.6
2017-Oct-15 11:00N 40°34' W 073°59'816.2
2017-Oct-15 10:30N 40°42' W 073°58'0 0.1
2017-Oct-15 10:00N 40°42' W 073°58'0 0.0
2017-Oct-15 09:30N 40°42' W 073°58'0 0.0
2017-Oct-15 09:00N 40°42' W 073°58'0 0.0
2017-Oct-15 08:30N 40°42' W 073°58'0 0.0
2017-Oct-15 08:00N 40°42' W 073°58'0 0.0
2017-Oct-15 07:30N 40°42' W 073°58'0 0.0
2017-Oct-15 07:00N 40°42' W 073°58'0 0.0
2017-Oct-15 06:30N 40°42' W 073°58'0 0.0
2017-Oct-15 06:00N 40°42' W 073°58'0 0.0
2017-Oct-15 05:30N 40°42' W 073°58'0 0.0
2017-Oct-15 05:00N 40°42' W 073°58'0 0.0
2017-Oct-15 04:30N 40°42' W 073°58'0 0.0
2017-Oct-15 04:00N 40°42' W 073°58'0 0.0
2017-Oct-15 03:30N 40°42' W 073°58'0 0.0
2017-Oct-15 03:00N 40°42' W 073°58'0 0.0
2017-Oct-15 02:30N 40°42' W 073°58'0 0.0
2017-Oct-15 02:00N 40°42' W 073°58'0 0.0
2017-Oct-15 01:30N 40°42' W 073°58'0 0.0
2017-Oct-15 01:00N 40°42' W 073°58'0 0.0
2017-Oct-15 00:30N 40°42' W 073°58'0 0.0
2017-Oct-15 00:00N 40°42' W 073°58'0 0.0
2017-Oct-14 23:30N 40°42' W 073°58'0 0.0
2017-Oct-14 23:00N 40°42' W 073°58'0 0.0
2017-Oct-14 22:30N 40°42' W 073°58'0 0.0
2017-Oct-14 22:00N 40°42' W 073°58'0 0.0
2017-Oct-14 21:30N 40°42' W 073°58'0 0.0
2017-Oct-14 21:00N 40°42' W 073°58'0 0.0
2017-Oct-14 20:30N 40°42' W 073°58'0 0.0
2017-Oct-14 20:00N 40°42' W 073°58'0 0.0
2017-Oct-14 19:30N 40°42' W 073°58'0 0.0
2017-Oct-14 19:00N 40°42' W 073°58'0 0.0
2017-Oct-14 18:30N 40°42' W 073°58'0 0.0
2017-Oct-14 18:00N 40°42' W 073°58'0 0.0
2017-Oct-14 17:30N 40°42' W 073°58'0 0.0
2017-Oct-14 17:00N 40°42' W 073°58'0 0.0
2017-Oct-14 16:30N 40°42' W 073°58'0 0.0
2017-Oct-14 16:00N 40°42' W 073°58'0 0.0
2017-Oct-14 15:30N 40°42' W 073°58'0 0.0
2017-Oct-14 15:00N 40°42' W 073°58'0 0.0
2017-Oct-14 14:30N 40°42' W 073°58'0 0.0
2017-Oct-14 14:00N 40°42' W 073°58'0 0.0
2017-Oct-14 13:30N 40°42' W 073°58'0 0.0
2017-Oct-14 13:00N 40°42' W 073°58'0 0.0
2017-Oct-14 12:30N 40°42' W 073°58'0 0.0
2017-Oct-14 12:00N 40°42' W 073°58'0 0.0
2017-Oct-14 11:30N 40°42' W 073°58'0 0.0
2017-Oct-14 11:00N 40°42' W 073°58'0 0.0
2017-Oct-14 10:30N 40°42' W 073°58'0 0.0
2017-Oct-14 10:00N 40°42' W 073°58'0 0.0
2017-Oct-14 09:30N 40°42' W 073°58'0 0.0
2017-Oct-14 09:00N 40°42' W 073°58'0 0.0
2017-Oct-14 08:30N 40°42' W 073°58'0 0.0
2017-Oct-14 08:00N 40°42' W 073°58'0 0.0
2017-Oct-14 07:30N 40°42' W 073°58'0 0.0
2017-Oct-14 01:41N 40°42' W 073°58'0 0.0
2017-Oct-14 01:30N 40°42' W 073°58'4 8.3
2017-Oct-14 01:00N 40°39' W 074°02'713.2
2017-Oct-14 00:28N 40°34' W 073°55'1 1.6
2017-Oct-14 00:00N 40°34' W 073°54'715.0
2017-Oct-13 23:30N 40°39' W 074°02'0 0.0
2017-Oct-13 23:00N 40°39' W 074°02'814.7
2017-Oct-13 22:29N 40°34' W 073°53'2 4.7
2017-Oct-13 22:00N 40°34' W 073°56'713.0
2017-Oct-13 21:30N 40°39' W 074°02'0 0.5
2017-Oct-13 21:01N 40°39' W 074°02'612.7
2017-Oct-13 20:30N 40°34' W 073°56'2 4.6
2017-Oct-13 20:00N 40°34' W 073°53'815.5
2017-Oct-13 19:30N 40°39' W 074°02'0 0.1
2017-Oct-13 19:00N 40°39' W 074°02'713.1
2017-Oct-13 18:29N 40°34' W 073°55'0 0.3
2017-Oct-13 18:00N 40°34' W 073°55'714.2
2017-Oct-13 17:31N 40°39' W 074°02'0 0.2
2017-Oct-13 17:00N 40°39' W 074°02'714.1
2017-Oct-13 16:30N 40°34' W 073°55'1 1.1
2017-Oct-13 16:00N 40°34' W 073°56'714.0
2017-Oct-13 15:30N 40°39' W 074°02'0 0.6
2017-Oct-13 15:01N 40°39' W 074°02'713.4
2017-Oct-13 14:30N 40°34' W 073°56'1 3.0
2017-Oct-13 14:00N 40°34' W 073°54'815.1
2017-Oct-13 13:30N 40°39' W 074°02'0 0.0
2017-Oct-13 13:00N 40°39' W 074°02'713.0
2017-Oct-13 12:30N 40°34' W 073°56'1 2.5
2017-Oct-13 12:00N 40°34' W 073°54'714.9
2017-Oct-13 11:30N 40°39' W 074°02'0 0.4
2017-Oct-13 11:00N 40°39' W 074°02'713.4
2017-Oct-13 10:30N 40°34' W 073°56'1 2.2
2017-Oct-13 10:00N 40°34' W 073°57'817.0
2017-Oct-13 09:30N 40°42' W 073°58'0 0.2
2017-Oct-13 09:00N 40°42' W 073°58'0 0.0
2017-Oct-12 01:35N 40°42' W 073°58'0 0.1
2017-Oct-12 01:30N 40°42' W 073°58'4 8.3
2017-Oct-12 01:00N 40°39' W 074°02'714.3
2017-Oct-12 00:30N 40°34' W 073°54'2 3.6
2017-Oct-12 00:00N 40°34' W 073°57'714.6
2017-Oct-11 23:30N 40°40' W 074°01'2 4.1
2017-Oct-11 23:00N 40°38' W 074°02'918.5
2017-Oct-11 22:29N 40°35' W 073°51'612.2
2017-Oct-11 22:00N 40°34' W 073°59'714.3
2017-Oct-11 21:30N 40°41' W 074°01'2 3.7
2017-Oct-11 21:00N 40°39' W 074°02'815.8
2017-Oct-11 20:30N 40°34' W 073°53'2 3.7
2017-Oct-11 20:00N 40°34' W 073°56'713.9
2017-Oct-11 19:30N 40°39' W 074°02'0 0.6
2017-Oct-11 19:00N 40°39' W 074°02'714.0
2017-Oct-11 18:30N 40°34' W 073°54'1 2.0
2017-Oct-11 18:00N 40°34' W 073°56'713.9
2017-Oct-11 17:30N 40°39' W 074°02'0 0.3
2017-Oct-11 17:01N 40°39' W 074°02'4 0.2
2017-Oct-10 19:37N 40°42' W 073°58'0 0.1
2017-Oct-10 19:31N 40°42' W 073°58'2 4.9
2017-Oct-10 19:01N 40°44' W 073°58'1 1.5
2017-Oct-10 18:30N 40°45' W 073°57'1 1.5
2017-Oct-10 18:00N 40°45' W 073°58'0 0.4
2017-Oct-10 17:30N 40°45' W 073°58'3 5.4
2017-Oct-10 17:01N 40°42' W 073°58'5 8.7
2017-Oct-10 16:29N 40°46' W 073°56'1 2.4
2017-Oct-10 16:00N 40°45' W 073°57'2 3.8
2017-Oct-10 15:31N 40°44' W 073°58'3 5.3
2017-Oct-10 15:00N 40°42' W 074°00'0 0.3
2017-Oct-10 14:01N 40°42' W 074°00'1 0.1
2017-Oct-10 02:09N 40°42' W 073°58'1 6.5
2017-Oct-10 02:01N 40°42' W 073°60'917.9
2017-Oct-10 01:30N 40°34' W 073°56'0 0.9
2017-Oct-10 01:01N 40°34' W 073°55'714.3
2017-Oct-10 00:30N 40°39' W 074°02'0 0.4
2017-Oct-10 00:01N 40°39' W 074°02'713.9
2017-Oct-09 23:30N 40°34' W 073°55'1 1.7
2017-Oct-09 23:00N 40°34' W 073°56'714.1
2017-Oct-09 22:31N 40°39' W 074°02'0 0.3
2017-Oct-09 22:01N 40°39' W 074°02'713.8
2017-Oct-09 21:30N 40°34' W 073°55'0 0.1
2017-Oct-09 21:00N 40°34' W 073°55'714.1
2017-Oct-09 20:31N 40°39' W 074°02'0 0.2
2017-Oct-09 20:01N 40°39' W 074°02'713.2
2017-Oct-09 19:30N 40°34' W 073°56'0 1.0
2017-Oct-09 19:01N 40°34' W 073°55'714.2
2017-Oct-09 18:31N 40°39' W 074°02'0 0.4
2017-Oct-09 18:00N 40°39' W 074°02'714.1
2017-Oct-09 17:30N 40°34' W 073°55'1 1.9
2017-Oct-09 17:01N 40°34' W 073°56'714.1
2017-Oct-09 16:30N 40°39' W 074°02'0 0.7
2017-Oct-09 16:01N 40°39' W 074°02'713.6
2017-Oct-09 15:30N 40°34' W 073°55'1 1.8
2017-Oct-09 15:01N 40°34' W 073°56'714.1
2017-Oct-09 14:31N 40°39' W 074°02'0 0.8
2017-Oct-09 14:01N 40°39' W 074°02'713.5
2017-Oct-09 13:30N 40°34' W 073°55'1 2.0
2017-Oct-09 13:00N 40°34' W 073°56'713.4
2017-Oct-09 12:31N 40°39' W 074°02'1 1.0
2017-Oct-09 12:00N 40°39' W 074°02'713.6
2017-Oct-09 11:30N 40°34' W 073°55'0 0.1
2017-Oct-09 11:00N 40°34' W 073°55'714.2
2017-Oct-09 10:30N 40°39' W 074°02'0 0.5
2017-Oct-09 10:01N 40°39' W 074°02'713.3
2017-Oct-09 09:30N 40°34' W 073°56'1 1.3
2017-Oct-09 09:00N 40°34' W 073°55'816.9
2017-Oct-09 08:31N 40°41' W 074°01'3 5.1
2017-Oct-09 08:01N 40°42' W 073°58'0 0.0
2017-Oct-09 07:30N 40°42' W 073°58'0 0.0
2017-Oct-09 02:59N 40°42' W 073°58'4 8.8
2017-Oct-09 02:31N 40°39' W 074°02'815.5
2017-Oct-09 02:00N 40°34' W 073°53'2 4.8
2017-Oct-09 01:30N 40°34' W 073°56'714.2
2017-Oct-09 01:01N 40°39' W 074°02'0 0.7
2017-Oct-09 00:31N 40°39' W 074°02'815.0
2017-Oct-09 00:00N 40°34' W 073°54'2 3.9
2017-Oct-08 23:30N 40°34' W 073°56'713.7
2017-Oct-08 23:00N 40°39' W 074°02'0 0.8
2017-Oct-08 22:31N 40°39' W 074°02'612.1
2017-Oct-08 22:00N 40°34' W 073°57'4 7.9
2017-Oct-08 21:30N 40°35' W 073°52'917.8
2017-Oct-08 21:00N 40°38' W 074°02'3 6.7
2017-Oct-08 20:30N 40°41' W 074°01'714.6
2017-Oct-08 20:00N 40°34' W 074°00'714.6
2017-Oct-08 19:30N 40°35' W 073°50'1019.5
2017-Oct-08 19:00N 40°37' W 074°03'610.8
2017-Oct-08 18:30N 40°42' W 074°00'714.3
2017-Oct-08 18:00N 40°35' W 074°02'917.1
2017-Oct-08 17:29N 40°35' W 073°50'919.7
2017-Oct-08 17:00N 40°36' W 074°02'612.4
2017-Oct-08 16:30N 40°42' W 074°00'713.6
2017-Oct-08 16:00N 40°35' W 074°02'915.7
2017-Oct-08 15:27N 40°35' W 073°50'920.8
2017-Oct-08 15:00N 40°36' W 074°02'612.3
2017-Oct-08 14:30N 40°42' W 074°00'815.4
2017-Oct-08 14:00N 40°35' W 074°01'916.0
2017-Oct-08 13:28N 40°35' W 073°50'918.3
2017-Oct-08 13:00N 40°35' W 074°01'715.0
2017-Oct-08 12:30N 40°42' W 074°00'612.9
2017-Oct-08 12:01N 40°36' W 074°02'918.6
2017-Oct-08 11:30N 40°35' W 073°50'714.5
2017-Oct-08 11:00N 40°34' W 073°59'816.3
2017-Oct-08 10:30N 40°42' W 073°58'0 0.0
2017-Oct-08 10:00N 40°42' W 073°58'0 0.0
2017-Oct-08 03:26N 40°42' W 073°58'614.6
2017-Oct-08 03:01N 40°37' W 074°03'1018.5
2017-Oct-08 02:29N 40°35' W 073°50'918.6
2017-Oct-08 02:00N 40°35' W 074°01'1 1.1
2017-Oct-08 01:00N 40°34' W 074°01'714.7
2017-Oct-08 00:30N 40°35' W 073°51'918.9
2017-Oct-08 00:01N 40°39' W 074°02'2 4.1
2017-Oct-07 23:31N 40°40' W 074°01'714.0
2017-Oct-07 23:00N 40°34' W 073°58'4 8.6
2017-Oct-07 22:30N 40°35' W 073°52'816.4
2017-Oct-07 22:00N 40°39' W 074°02'3 5.2
2017-Oct-07 21:30N 40°41' W 074°01'715.0
2017-Oct-07 21:00N 40°34' W 073°59'713.2
2017-Oct-07 20:30N 40°35' W 073°50'1019.4
2017-Oct-07 20:00N 40°37' W 074°03'510.6
2017-Oct-07 19:30N 40°42' W 074°00'714.8
2017-Oct-07 19:00N 40°35' W 074°01'816.7
2017-Oct-07 18:30N 40°35' W 073°50'1019.2
2017-Oct-07 18:00N 40°37' W 074°03'611.9
2017-Oct-07 17:30N 40°42' W 074°00'712.8
2017-Oct-07 17:00N 40°36' W 074°02'917.4
2017-Oct-07 16:28N 40°35' W 073°50'1020.4
2017-Oct-07 16:00N 40°37' W 074°03'612.1
2017-Oct-07 15:30N 40°42' W 074°00'713.7
2017-Oct-07 15:00N 40°35' W 074°02'916.7
2017-Oct-07 14:28N 40°35' W 073°50'919.4
2017-Oct-07 14:00N 40°35' W 074°02'713.6
2017-Oct-07 13:30N 40°42' W 074°00'612.7
2017-Oct-07 13:00N 40°36' W 074°02'918.6
2017-Oct-07 12:30N 40°35' W 073°50'917.2
2017-Oct-07 12:00N 40°35' W 074°01'715.1
2017-Oct-07 11:30N 40°42' W 074°00'815.5
2017-Oct-07 11:00N 40°34' W 074°01'816.6
2017-Oct-07 10:30N 40°35' W 073°50'1020.3
2017-Oct-07 10:00N 40°38' W 074°03'5 0.7
2017-Oct-07 02:23N 40°42' W 073°58'4 9.7
2017-Oct-07 02:00N 40°39' W 074°02'815.8
2017-Oct-07 01:30N 40°34' W 073°53'2 4.1
2017-Oct-07 00:59N 40°34' W 073°56'714.1
2017-Oct-07 00:30N 40°39' W 074°02'1 1.0
2017-Oct-07 00:00N 40°39' W 074°02'814.7
2017-Oct-06 23:29N 40°34' W 073°54'2 4.9
2017-Oct-06 23:00N 40°34' W 073°57'713.5
2017-Oct-06 22:30N 40°39' W 074°01'1 1.1
2017-Oct-06 22:01N 40°39' W 074°02'815.7
2017-Oct-06 21:30N 40°34' W 073°53'3 6.5
2017-Oct-06 21:00N 40°34' W 073°57'714.1
2017-Oct-06 20:31N 40°40' W 074°01'1 2.4
2017-Oct-06 20:01N 40°39' W 074°02'815.7
2017-Oct-06 19:30N 40°35' W 073°53'3 5.9
2017-Oct-06 19:00N 40°34' W 073°56'714.1
2017-Oct-06 18:31N 40°40' W 074°01'1 1.8
2017-Oct-06 18:01N 40°39' W 074°02'714.1
2017-Oct-06 17:30N 40°34' W 073°54'1 2.0
2017-Oct-06 17:00N 40°34' W 073°56'  
Track history (hours):
 
Tides and Currents Weather Stations Pressure Air Temp Water Temp Dewpoint Dewpoint Depression Visibility Wind Speed Wind Dir Waves Ship Positions

Opportunity

Owner: HNY Ferry Fleet LLC, New York, NY. More information available from US FCC via Universal Licensing System and Coast Guard Vessel Documentation Center.

Last reported at 2017-Oct-16 16:33 UTC. Time now 2017-Oct-17 13:19 UTC.
Position N 40°42' W 073°58'.

Length 26 m; draft 2 m.

Type: Passenger vessel. MMSI: 367791540.

Date/timePositionNaut miles runAvg speedWind from/ knotsBaromVisibWave heightAir tempDewpointWater temp
2017-Oct-16 16:33N 40°42' W 073°58'0 0.2
2017-Oct-16 16:30N 40°42' W 073°58'4 8.2
2017-Oct-16 16:00N 40°39' W 074°02'713.1
2017-Oct-16 15:30N 40°34' W 073°56'3 5.4
2017-Oct-16 15:00N 40°34' W 073°53'8 8.1
2017-Oct-16 14:00N 40°39' W 074°02'713.4
2017-Oct-16 13:30N 40°34' W 073°55'1 1.5
2017-Oct-16 13:00N 40°34' W 073°54'714.9
2017-Oct-16 12:31N 40°39' W 074°02'0 0.1
2017-Oct-16 12:00N 40°39' W 074°02'714.2
2017-Oct-16 11:30N 40°34' W 073°54'0 0.7
2017-Oct-16 11:00N 40°34' W 073°55'714.4
2017-Oct-16 10:31N 40°39' W 074°02'0 0.1
2017-Oct-16 10:01N 40°39' W 074°02'713.5
2017-Oct-16 09:29N 40°34' W 073°55'1 2.7
2017-Oct-16 09:00N 40°34' W 073°53'816.8
2017-Oct-16 08:31N 40°40' W 074°01'3 6.0
2017-Oct-16 08:00N 40°42' W 073°58'0 0.0
2017-Oct-16 02:49N 40°42' W 073°58'1 4.7
2017-Oct-16 02:31N 40°42' W 074°00'611.7
2017-Oct-16 02:01N 40°37' W 074°02'1017.8
2017-Oct-16 01:28N 40°35' W 073°50'920.1
2017-Oct-16 01:01N 40°36' W 074°02'713.1
2017-Oct-16 00:31N 40°42' W 074°00'815.8
2017-Oct-16 00:00N 40°34' W 074°00'714.3
2017-Oct-15 23:30N 40°35' W 073°51'919.3
2017-Oct-15 23:00N 40°38' W 074°03'4 8.4
2017-Oct-15 22:31N 40°41' W 074°01'815.2
2017-Oct-15 22:00N 40°34' W 073°58'510.2
2017-Oct-15 21:30N 40°35' W 073°51'918.6
2017-Oct-15 21:00N 40°38' W 074°03'4 8.7
2017-Oct-15 20:31N 40°42' W 074°00'815.2
2017-Oct-15 20:00N 40°34' W 073°60'714.1
2017-Oct-15 19:28N 40°35' W 073°50'920.0
2017-Oct-15 19:00N 40°36' W 074°02'612.2
2017-Oct-15 18:31N 40°42' W 074°00'612.7
2017-Oct-15 18:01N 40°36' W 074°02'917.7
2017-Oct-15 17:29N 40°35' W 073°50'918.6
2017-Oct-15 17:00N 40°36' W 074°02'713.5
2017-Oct-15 16:30N 40°42' W 074°00'612.0
2017-Oct-15 16:00N 40°36' W 074°02'1018.8
2017-Oct-15 15:30N 40°35' W 073°50'817.1
2017-Oct-15 15:01N 40°35' W 074°01'2 2.1
2017-Oct-15 14:00N 40°36' W 074°02'1018.1
2017-Oct-15 13:29N 40°35' W 073°50'816.5
2017-Oct-15 13:00N 40°34' W 074°00'816.2
2017-Oct-15 12:30N 40°42' W 074°00'611.3
2017-Oct-15 12:00N 40°37' W 074°03'1018.1
2017-Oct-15 11:28N 40°35' W 073°50'714.6
2017-Oct-15 11:00N 40°34' W 073°59'816.2
2017-Oct-15 10:30N 40°42' W 073°58'0 0.1
2017-Oct-15 10:00N 40°42' W 073°58'0 0.0
2017-Oct-15 09:30N 40°42' W 073°58'0 0.0
2017-Oct-15 09:00N 40°42' W 073°58'0 0.0
2017-Oct-15 08:30N 40°42' W 073°58'0 0.0
2017-Oct-15 08:00N 40°42' W 073°58'0 0.0
2017-Oct-15 07:30N 40°42' W 073°58'0 0.0
2017-Oct-15 07:00N 40°42' W 073°58'0 0.0
2017-Oct-15 06:30N 40°42' W 073°58'0 0.0
2017-Oct-15 06:00N 40°42' W 073°58'0 0.0
2017-Oct-15 05:30N 40°42' W 073°58'0 0.0
2017-Oct-15 05:00N 40°42' W 073°58'0 0.0
2017-Oct-15 04:30N 40°42' W 073°58'0 0.0
2017-Oct-15 04:00N 40°42' W 073°58'0 0.0
2017-Oct-15 03:30N 40°42' W 073°58'0 0.0
2017-Oct-15 03:00N 40°42' W 073°58'0 0.0
2017-Oct-15 02:30N 40°42' W 073°58'0 0.0
2017-Oct-15 02:00N 40°42' W 073°58'0 0.0
2017-Oct-15 01:30N 40°42' W 073°58'0 0.0
2017-Oct-15 01:00N 40°42' W 073°58'0 0.0
2017-Oct-15 00:30N 40°42' W 073°58'0 0.0
2017-Oct-15 00:00N 40°42' W 073°58'0 0.0
2017-Oct-14 23:30N 40°42' W 073°58'0 0.0
2017-Oct-14 23:00N 40°42' W 073°58'0 0.0
2017-Oct-14 22:30N 40°42' W 073°58'0 0.0
2017-Oct-14 22:00N 40°42' W 073°58'0 0.0
2017-Oct-14 21:30N 40°42' W 073°58'0 0.0
2017-Oct-14 21:00N 40°42' W 073°58'0 0.0
2017-Oct-14 20:30N 40°42' W 073°58'0 0.0
2017-Oct-14 20:00N 40°42' W 073°58'0 0.0
2017-Oct-14 19:30N 40°42' W 073°58'0 0.0
2017-Oct-14 19:00N 40°42' W 073°58'0 0.0
2017-Oct-14 18:30N 40°42' W 073°58'0 0.0
2017-Oct-14 18:00N 40°42' W 073°58'0 0.0
2017-Oct-14 17:30N 40°42' W 073°58'0 0.0
2017-Oct-14 17:00N 40°42' W 073°58'0 0.0
2017-Oct-14 16:30N 40°42' W 073°58'0 0.0
2017-Oct-14 16:00N 40°42' W 073°58'0 0.0
2017-Oct-14 15:30N 40°42' W 073°58'0 0.0
2017-Oct-14 15:00N 40°42' W 073°58'0 0.0
2017-Oct-14 14:30N 40°42' W 073°58'0 0.0
2017-Oct-14 14:00N 40°42' W 073°58'0 0.0
2017-Oct-14 13:30N 40°42' W 073°58'0 0.0
2017-Oct-14 13:00N 40°42' W 073°58'0 0.0
2017-Oct-14 12:30N 40°42' W 073°58'0 0.0
2017-Oct-14 12:00N 40°42' W 073°58'0 0.0
2017-Oct-14 11:30N 40°42' W 073°58'0 0.0
2017-Oct-14 11:00N 40°42' W 073°58'0 0.0
2017-Oct-14 10:30N 40°42' W 073°58'0 0.0
2017-Oct-14 10:00N 40°42' W 073°58'0 0.0
2017-Oct-14 09:30N 40°42' W 073°58'0 0.0
2017-Oct-14 09:00N 40°42' W 073°58'0 0.0
2017-Oct-14 08:30N 40°42' W 073°58'0 0.0
2017-Oct-14 08:00N 40°42' W 073°58'0 0.0
2017-Oct-14 07:30N 40°42' W 073°58'0 0.0
2017-Oct-14 01:41N 40°42' W 073°58'0 0.0
2017-Oct-14 01:30N 40°42' W 073°58'4 8.3
2017-Oct-14 01:00N 40°39' W 074°02'713.2
2017-Oct-14 00:28N 40°34' W 073°55'1 1.6
2017-Oct-14 00:00N 40°34' W 073°54'715.0
2017-Oct-13 23:30N 40°39' W 074°02'0 0.0
2017-Oct-13 23:00N 40°39' W 074°02'814.7
2017-Oct-13 22:29N 40°34' W 073°53'2 4.7
2017-Oct-13 22:00N 40°34' W 073°56'713.0
2017-Oct-13 21:30N 40°39' W 074°02'0 0.5
2017-Oct-13 21:01N 40°39' W 074°02'612.7
2017-Oct-13 20:30N 40°34' W 073°56'2 4.6
2017-Oct-13 20:00N 40°34' W 073°53'815.5
2017-Oct-13 19:30N 40°39' W 074°02'0 0.1
2017-Oct-13 19:00N 40°39' W 074°02'713.1
2017-Oct-13 18:29N 40°34' W 073°55'0 0.3
2017-Oct-13 18:00N 40°34' W 073°55'714.2
2017-Oct-13 17:31N 40°39' W 074°02'0 0.2
2017-Oct-13 17:00N 40°39' W 074°02'714.1
2017-Oct-13 16:30N 40°34' W 073°55'1 1.1
2017-Oct-13 16:00N 40°34' W 073°56'714.0
2017-Oct-13 15:30N 40°39' W 074°02'0 0.6
2017-Oct-13 15:01N 40°39' W 074°02'713.4
2017-Oct-13 14:30N 40°34' W 073°56'1 3.0
2017-Oct-13 14:00N 40°34' W 073°54'815.1
2017-Oct-13 13:30N 40°39' W 074°02'0 0.0
2017-Oct-13 13:00N 40°39' W 074°02'713.0
2017-Oct-13 12:30N 40°34' W 073°56'1 2.5
2017-Oct-13 12:00N 40°34' W 073°54'714.9
2017-Oct-13 11:30N 40°39' W 074°02'0 0.4
2017-Oct-13 11:00N 40°39' W 074°02'713.4
2017-Oct-13 10:30N 40°34' W 073°56'1 2.2
2017-Oct-13 10:00N 40°34' W 073°57'817.0
2017-Oct-13 09:30N 40°42' W 073°58'0 0.2
2017-Oct-13 09:00N 40°42' W 073°58'0 0.0
2017-Oct-12 01:35N 40°42' W 073°58'0 0.1
2017-Oct-12 01:30N 40°42' W 073°58'4 8.3
2017-Oct-12 01:00N 40°39' W 074°02'714.3
2017-Oct-12 00:30N 40°34' W 073°54'2 3.6
2017-Oct-12 00:00N 40°34' W 073°57'714.6
2017-Oct-11 23:30N 40°40' W 074°01'2 4.1
2017-Oct-11 23:00N 40°38' W 074°02'918.5
2017-Oct-11 22:29N 40°35' W 073°51'612.2
2017-Oct-11 22:00N 40°34' W 073°59'714.3
2017-Oct-11 21:30N 40°41' W 074°01'2 3.7
2017-Oct-11 21:00N 40°39' W 074°02'815.8
2017-Oct-11 20:30N 40°34' W 073°53'2 3.7
2017-Oct-11 20:00N 40°34' W 073°56'713.9
2017-Oct-11 19:30N 40°39' W 074°02'0 0.6
2017-Oct-11 19:00N 40°39' W 074°02'714.0
2017-Oct-11 18:30N 40°34' W 073°54'1 2.0
2017-Oct-11 18:00N 40°34' W 073°56'713.9
2017-Oct-11 17:30N 40°39' W 074°02'0 0.3
2017-Oct-11 17:01N 40°39' W 074°02'4 0.2
2017-Oct-10 19:37N 40°42' W 073°58'0 0.1
2017-Oct-10 19:31N 40°42' W 073°58'2 4.9
2017-Oct-10 19:01N 40°44' W 073°58'1 1.5
2017-Oct-10 18:30N 40°45' W 073°57'1 1.5
2017-Oct-10 18:00N 40°45' W 073°58'0 0.4
2017-Oct-10 17:30N 40°45' W 073°58'3 5.4
2017-Oct-10 17:01N 40°42' W 073°58'5 8.7
2017-Oct-10 16:29N 40°46' W 073°56'1 2.4
2017-Oct-10 16:00N 40°45' W 073°57'2 3.8
2017-Oct-10 15:31N 40°44' W 073°58'3 5.3
2017-Oct-10 15:00N 40°42' W 074°00'0 0.3
2017-Oct-10 14:01N 40°42' W 074°00'1 0.1
2017-Oct-10 02:09N 40°42' W 073°58'1 6.5
2017-Oct-10 02:01N 40°42' W 073°60'917.9
2017-Oct-10 01:30N 40°34' W 073°56'0 0.9
2017-Oct-10 01:01N 40°34' W 073°55'714.3
2017-Oct-10 00:30N 40°39' W 074°02'0 0.4
2017-Oct-10 00:01N 40°39' W 074°02'713.9
2017-Oct-09 23:30N 40°34' W 073°55'1 1.7
2017-Oct-09 23:00N 40°34' W 073°56'714.1
2017-Oct-09 22:31N 40°39' W 074°02'0 0.3
2017-Oct-09 22:01N 40°39' W 074°02'713.8
2017-Oct-09 21:30N 40°34' W 073°55'0 0.1
2017-Oct-09 21:00N 40°34' W 073°55'714.1
2017-Oct-09 20:31N 40°39' W 074°02'0 0.2
2017-Oct-09 20:01N 40°39' W 074°02'713.2
2017-Oct-09 19:30N 40°34' W 073°56'0 1.0
2017-Oct-09 19:01N 40°34' W 073°55'714.2
2017-Oct-09 18:31N 40°39' W 074°02'0 0.4
2017-Oct-09 18:00N 40°39' W 074°02'714.1
2017-Oct-09 17:30N 40°34' W 073°55'1 1.9
2017-Oct-09 17:01N 40°34' W 073°56'714.1
2017-Oct-09 16:30N 40°39' W 074°02'0 0.7
2017-Oct-09 16:01N 40°39' W 074°02'713.6
2017-Oct-09 15:30N 40°34' W 073°55'1 1.8
2017-Oct-09 15:01N 40°34' W 073°56'714.1
2017-Oct-09 14:31N 40°39' W 074°02'0 0.8
2017-Oct-09 14:01N 40°39' W 074°02'713.5
2017-Oct-09 13:30N 40°34' W 073°55'1 2.0
2017-Oct-09 13:00N 40°34' W 073°56'713.4
2017-Oct-09 12:31N 40°39' W 074°02'1 1.0
2017-Oct-09 12:00N 40°39' W 074°02'713.6
2017-Oct-09 11:30N 40°34' W 073°55'0 0.1
2017-Oct-09 11:00N 40°34' W 073°55'714.2
2017-Oct-09 10:30N 40°39' W 074°02'0 0.5
2017-Oct-09 10:01N 40°39' W 074°02'713.3
2017-Oct-09 09:30N 40°34' W 073°56'1 1.3
2017-Oct-09 09:00N 40°34' W 073°55'816.9
2017-Oct-09 08:31N 40°41' W 074°01'3 5.1
2017-Oct-09 08:01N 40°42' W 073°58'0 0.0
2017-Oct-09 07:30N 40°42' W 073°58'0 0.0
2017-Oct-09 02:59N 40°42' W 073°58'4 8.8
2017-Oct-09 02:31N 40°39' W 074°02'815.5
2017-Oct-09 02:00N 40°34' W 073°53'2 4.8
2017-Oct-09 01:30N 40°34' W 073°56'714.2
2017-Oct-09 01:01N 40°39' W 074°02'0 0.7
2017-Oct-09 00:31N 40°39' W 074°02'815.0
2017-Oct-09 00:00N 40°34' W 073°54'2 3.9
2017-Oct-08 23:30N 40°34' W 073°56'713.7
2017-Oct-08 23:00N 40°39' W 074°02'0 0.8
2017-Oct-08 22:31N 40°39' W 074°02'612.1
2017-Oct-08 22:00N 40°34' W 073°57'4 7.9
2017-Oct-08 21:30N 40°35' W 073°52'917.8
2017-Oct-08 21:00N 40°38' W 074°02'3 6.7
2017-Oct-08 20:30N 40°41' W 074°01'714.6
2017-Oct-08 20:00N 40°34' W 074°00'714.6
2017-Oct-08 19:30N 40°35' W 073°50'1019.5
2017-Oct-08 19:00N 40°37' W 074°03'610.8
2017-Oct-08 18:30N 40°42' W 074°00'714.3
2017-Oct-08 18:00N 40°35' W 074°02'917.1
2017-Oct-08 17:29N 40°35' W 073°50'919.7
2017-Oct-08 17:00N 40°36' W 074°02'612.4
2017-Oct-08 16:30N 40°42' W 074°00'713.6
2017-Oct-08 16:00N 40°35' W 074°02'915.7
2017-Oct-08 15:27N 40°35' W 073°50'920.8
2017-Oct-08 15:00N 40°36' W 074°02'612.3
2017-Oct-08 14:30N 40°42' W 074°00'815.4
2017-Oct-08 14:00N 40°35' W 074°01'916.0
2017-Oct-08 13:28N 40°35' W 073°50'918.3
2017-Oct-08 13:00N 40°35' W 074°01'715.0
2017-Oct-08 12:30N 40°42' W 074°00'612.9
2017-Oct-08 12:01N 40°36' W 074°02'918.6
2017-Oct-08 11:30N 40°35' W 073°50'714.5
2017-Oct-08 11:00N 40°34' W 073°59'816.3
2017-Oct-08 10:30N 40°42' W 073°58'0 0.0
2017-Oct-08 10:00N 40°42' W 073°58'0 0.0
2017-Oct-08 03:26N 40°42' W 073°58'614.6
2017-Oct-08 03:01N 40°37' W 074°03'1018.5
2017-Oct-08 02:29N 40°35' W 073°50'918.6
2017-Oct-08 02:00N 40°35' W 074°01'1 1.1
2017-Oct-08 01:00N 40°34' W 074°01'714.7
2017-Oct-08 00:30N 40°35' W 073°51'918.9
2017-Oct-08 00:01N 40°39' W 074°02'2 4.1
2017-Oct-07 23:31N 40°40' W 074°01'714.0
2017-Oct-07 23:00N 40°34' W 073°58'4 8.6
2017-Oct-07 22:30N 40°35' W 073°52'816.4
2017-Oct-07 22:00N 40°39' W 074°02'3 5.2
2017-Oct-07 21:30N 40°41' W 074°01'715.0
2017-Oct-07 21:00N 40°34' W 073°59'713.2
2017-Oct-07 20:30N 40°35' W 073°50'1019.4
2017-Oct-07 20:00N 40°37' W 074°03'510.6
2017-Oct-07 19:30N 40°42' W 074°00'714.8
2017-Oct-07 19:00N 40°35' W 074°01'816.7
2017-Oct-07 18:30N 40°35' W 073°50'1019.2
2017-Oct-07 18:00N 40°37' W 074°03'611.9
2017-Oct-07 17:30N 40°42' W 074°00'712.8
2017-Oct-07 17:00N 40°36' W 074°02'917.4
2017-Oct-07 16:28N 40°35' W 073°50'1020.4
2017-Oct-07 16:00N 40°37' W 074°03'612.1
2017-Oct-07 15:30N 40°42' W 074°00'713.7
2017-Oct-07 15:00N 40°35' W 074°02'916.7
2017-Oct-07 14:28N 40°35' W 073°50'919.4
2017-Oct-07 14:00N 40°35' W 074°02'713.6
2017-Oct-07 13:30N 40°42' W 074°00'612.7
2017-Oct-07 13:00N 40°36' W 074°02'918.6
2017-Oct-07 12:30N 40°35' W 073°50'917.2
2017-Oct-07 12:00N 40°35' W 074°01'715.1
2017-Oct-07 11:30N 40°42' W 074°00'815.5
2017-Oct-07 11:00N 40°34' W 074°01'816.6
2017-Oct-07 10:30N 40°35' W 073°50'1020.3
2017-Oct-07 10:00N 40°38' W 074°03'5 0.7
2017-Oct-07 02:23N 40°42' W 073°58'4 9.7
2017-Oct-07 02:00N 40°39' W 074°02'815.8
2017-Oct-07 01:30N 40°34' W 073°53'2 4.1
2017-Oct-07 00:59N 40°34' W 073°56'714.1
2017-Oct-07 00:30N 40°39' W 074°02'1 1.0
2017-Oct-07 00:00N 40°39' W 074°02'814.7
2017-Oct-06 23:29N 40°34' W 073°54'2 4.9
2017-Oct-06 23:00N 40°34' W 073°57'713.5
2017-Oct-06 22:30N 40°39' W 074°01'1 1.1
2017-Oct-06 22:01N 40°39' W 074°02'815.7
2017-Oct-06 21:30N 40°34' W 073°53'3 6.5
2017-Oct-06 21:00N 40°34' W 073°57'714.1
2017-Oct-06 20:31N 40°40' W 074°01'1 2.4
2017-Oct-06 20:01N 40°39' W 074°02'815.7
2017-Oct-06 19:30N 40°35' W 073°53'3 5.9
2017-Oct-06 19:00N 40°34' W 073°56'714.1
2017-Oct-06 18:31N 40°40' W 074°01'1 1.8
2017-Oct-06 18:01N 40°39' W 074°02'714.1
2017-Oct-06 17:30N 40°34' W 073°54'1 2.0
2017-Oct-06 17:00N 40°34' W 073°56'  

Dump ship's entire track history